sensor_id;sensor_type;location;lat;lon;timestamp;P1;durP1;ratioP1;P2;durP2;ratioP2
32876;SDS011;19226;51.600;8.034;2022-09-12T00:03:58;12.20;;;8.43;;
32876;SDS011;19226;51.600;8.034;2022-09-12T00:06:29;12.20;;;8.73;;
32876;SDS011;19226;51.600;8.034;2022-09-12T00:08:58;14.38;;;8.95;;
32876;SDS011;19226;51.600;8.034;2022-09-12T00:13:58;13.43;;;8.57;;
32876;SDS011;19226;51.600;8.034;2022-09-12T00:16:26;13.13;;;7.32;;
32876;SDS011;19226;51.600;8.034;2022-09-12T00:18:54;9.32;;;7.07;;
32876;SDS011;19226;51.600;8.034;2022-09-12T00:21:20;9.10;;;7.20;;
32876;SDS011;19226;51.600;8.034;2022-09-12T00:23:49;13.45;;;8.15;;
32876;SDS011;19226;51.600;8.034;2022-09-12T00:26:16;8.55;;;6.60;;
32876;SDS011;19226;51.600;8.034;2022-09-12T00:28:45;8.65;;;7.38;;
32876;SDS011;19226;51.600;8.034;2022-09-12T00:31:14;11.82;;;7.50;;
32876;SDS011;19226;51.600;8.034;2022-09-12T00:33:43;11.45;;;7.95;;
32876;SDS011;19226;51.600;8.034;2022-09-12T00:36:14;12.55;;;8.25;;
32876;SDS011;19226;51.600;8.034;2022-09-12T00:38:42;8.60;;;7.65;;
32876;SDS011;19226;51.600;8.034;2022-09-12T00:41:11;9.60;;;8.02;;
32876;SDS011;19226;51.600;8.034;2022-09-12T00:43:50;10.75;;;8.73;;
32876;SDS011;19226;51.600;8.034;2022-09-12T00:49:20;11.90;;;8.82;;
32876;SDS011;19226;51.600;8.034;2022-09-12T00:52:14;11.10;;;8.50;;
32876;SDS011;19226;51.600;8.034;2022-09-12T00:54:45;13.57;;;9.15;;
32876;SDS011;19226;51.600;8.034;2022-09-12T00:57:22;14.35;;;9.15;;
32876;SDS011;19226;51.600;8.034;2022-09-12T01:02:44;10.75;;;8.90;;
32876;SDS011;19226;51.600;8.034;2022-09-12T01:05:14;15.40;;;8.90;;
32876;SDS011;19226;51.600;8.034;2022-09-12T01:07:41;13.73;;;9.15;;
32876;SDS011;19226;51.600;8.034;2022-09-12T01:10:09;12.32;;;8.75;;
32876;SDS011;19226;51.600;8.034;2022-09-12T01:12:39;14.43;;;8.75;;
32876;SDS011;19226;51.600;8.034;2022-09-12T01:15:12;12.25;;;8.20;;
32876;SDS011;19226;51.600;8.034;2022-09-12T01:17:43;11.05;;;8.20;;
32876;SDS011;19226;51.600;8.034;2022-09-12T01:26:29;10.30;;;7.47;;
32876;SDS011;19226;51.600;8.034;2022-09-12T01:29:29;9.52;;;8.52;;
32876;SDS011;19226;51.600;8.034;2022-09-12T01:35:15;16.48;;;8.40;;
32876;SDS011;19226;51.600;8.034;2022-09-12T01:38:06;9.73;;;8.40;;
32876;SDS011;19226;51.600;8.034;2022-09-12T01:40:45;10.93;;;8.43;;
32876;SDS011;19226;51.600;8.034;2022-09-12T01:43:49;9.30;;;8.32;;
32876;SDS011;19226;51.600;8.034;2022-09-12T01:49:19;11.68;;;7.13;;
32876;SDS011;19226;51.600;8.034;2022-09-12T01:54:49;10.35;;;7.57;;
32876;SDS011;19226;51.600;8.034;2022-09-12T01:58:02;10.45;;;8.18;;
32876;SDS011;19226;51.600;8.034;2022-09-12T02:00:39;10.55;;;7.43;;
32876;SDS011;19226;51.600;8.034;2022-09-12T02:03:15;10.60;;;7.45;;
32876;SDS011;19226;51.600;8.034;2022-09-12T02:05:55;8.90;;;6.57;;
32876;SDS011;19226;51.600;8.034;2022-09-12T02:08:28;8.40;;;7.50;;
32876;SDS011;19226;51.600;8.034;2022-09-12T02:11:08;7.65;;;6.82;;
32876;SDS011;19226;51.600;8.034;2022-09-12T02:16:12;7.80;;;6.32;;
32876;SDS011;19226;51.600;8.034;2022-09-12T02:18:44;11.30;;;7.78;;
32876;SDS011;19226;51.600;8.034;2022-09-12T02:21:16;8.88;;;7.53;;
32876;SDS011;19226;51.600;8.034;2022-09-12T02:23:46;17.35;;;9.38;;
32876;SDS011;19226;51.600;8.034;2022-09-12T02:26:23;11.13;;;9.43;;
32876;SDS011;19226;51.600;8.034;2022-09-12T02:28:55;12.63;;;9.45;;
32876;SDS011;19226;51.600;8.034;2022-09-12T02:31:22;17.42;;;9.95;;
32876;SDS011;19226;51.600;8.034;2022-09-12T02:34:09;14.00;;;8.70;;
32876;SDS011;19226;51.600;8.034;2022-09-12T02:36:48;7.97;;;6.68;;
32876;SDS011;19226;51.600;8.034;2022-09-12T02:39:15;13.05;;;7.53;;
32876;SDS011;19226;51.600;8.034;2022-09-12T02:41:45;8.80;;;7.65;;
32876;SDS011;19226;51.600;8.034;2022-09-12T02:44:14;6.68;;;5.75;;
32876;SDS011;19226;51.600;8.034;2022-09-12T02:46:46;9.15;;;6.45;;
32876;SDS011;19226;51.600;8.034;2022-09-12T02:49:16;10.02;;;6.90;;
32876;SDS011;19226;51.600;8.034;2022-09-12T02:51:42;8.23;;;7.32;;
32876;SDS011;19226;51.600;8.034;2022-09-12T02:54:09;14.10;;;9.07;;
32876;SDS011;19226;51.600;8.034;2022-09-12T02:56:39;15.18;;;9.88;;
32876;SDS011;19226;51.600;8.034;2022-09-12T02:59:08;12.02;;;9.10;;
32876;SDS011;19226;51.600;8.034;2022-09-12T03:01:45;13.73;;;9.23;;
32876;SDS011;19226;51.600;8.034;2022-09-12T03:15:58;7.35;;;6.65;;
32876;SDS011;19226;51.600;8.034;2022-09-12T03:24:25;10.10;;;6.72;;
32876;SDS011;19226;51.600;8.034;2022-09-12T03:26:59;7.68;;;6.47;;
32876;SDS011;19226;51.600;8.034;2022-09-12T03:29:33;7.82;;;7.03;;
32876;SDS011;19226;51.600;8.034;2022-09-12T03:32:02;8.35;;;6.93;;
32876;SDS011;19226;51.600;8.034;2022-09-12T03:34:28;12.10;;;7.40;;
32876;SDS011;19226;51.600;8.034;2022-09-12T03:36:55;7.82;;;6.40;;
32876;SDS011;19226;51.600;8.034;2022-09-12T03:39:22;8.38;;;6.88;;
32876;SDS011;19226;51.600;8.034;2022-09-12T03:41:49;6.47;;;4.22;;
32876;SDS011;19226;51.600;8.034;2022-09-12T03:44:18;4.95;;;4.55;;
32876;SDS011;19226;51.600;8.034;2022-09-12T03:46:44;4.70;;;4.30;;
32876;SDS011;19226;51.600;8.034;2022-09-12T03:49:12;8.70;;;5.25;;
32876;SDS011;19226;51.600;8.034;2022-09-12T03:51:41;6.10;;;5.40;;
32876;SDS011;19226;51.600;8.034;2022-09-12T03:54:09;8.45;;;5.15;;
32876;SDS011;19226;51.600;8.034;2022-09-12T03:56:36;13.65;;;6.55;;
32876;SDS011;19226;51.600;8.034;2022-09-12T03:59:04;5.50;;;5.00;;
32876;SDS011;19226;51.600;8.034;2022-09-12T04:01:31;8.40;;;5.47;;
32876;SDS011;19226;51.600;8.034;2022-09-12T04:07:07;6.88;;;4.80;;
32876;SDS011;19226;51.600;8.034;2022-09-12T04:09:34;7.75;;;5.35;;
32876;SDS011;19226;51.600;8.034;2022-09-12T04:12:01;10.27;;;6.00;;
32876;SDS011;19226;51.600;8.034;2022-09-12T04:14:29;13.50;;;5.88;;
32876;SDS011;19226;51.600;8.034;2022-09-12T04:16:55;9.35;;;5.50;;
32876;SDS011;19226;51.600;8.034;2022-09-12T04:19:21;8.73;;;5.65;;
32876;SDS011;19226;51.600;8.034;2022-09-12T04:21:47;6.60;;;5.57;;
32876;SDS011;19226;51.600;8.034;2022-09-12T04:24:15;8.30;;;6.28;;
32876;SDS011;19226;51.600;8.034;2022-09-12T04:26:41;8.20;;;6.57;;
32876;SDS011;19226;51.600;8.034;2022-09-12T04:29:09;10.07;;;7.43;;
32876;SDS011;19226;51.600;8.034;2022-09-12T04:31:37;10.10;;;7.03;;
32876;SDS011;19226;51.600;8.034;2022-09-12T04:34:04;8.55;;;7.25;;
32876;SDS011;19226;51.600;8.034;2022-09-12T04:36:31;9.25;;;7.72;;
32876;SDS011;19226;51.600;8.034;2022-09-12T04:38:59;7.75;;;6.65;;
32876;SDS011;19226;51.600;8.034;2022-09-12T04:41:30;8.07;;;6.63;;
32876;SDS011;19226;51.600;8.034;2022-09-12T04:44:00;6.53;;;5.82;;
32876;SDS011;19226;51.600;8.034;2022-09-12T04:46:35;6.45;;;5.68;;
32876;SDS011;19226;51.600;8.034;2022-09-12T04:49:03;10.38;;;7.10;;
32876;SDS011;19226;51.600;8.034;2022-09-12T04:51:31;8.35;;;7.07;;
32876;SDS011;19226;51.600;8.034;2022-09-12T04:54:03;16.17;;;7.60;;
32876;SDS011;19226;51.600;8.034;2022-09-12T04:56:31;13.35;;;6.53;;
32876;SDS011;19226;51.600;8.034;2022-09-12T04:58:59;8.02;;;6.35;;
32876;SDS011;19226;51.600;8.034;2022-09-12T05:01:26;10.70;;;6.30;;
32876;SDS011;19226;51.600;8.034;2022-09-12T05:03:54;9.40;;;6.13;;
32876;SDS011;19226;51.600;8.034;2022-09-12T05:06:21;9.82;;;6.90;;
32876;SDS011;19226;51.600;8.034;2022-09-12T05:08:49;7.57;;;5.83;;
32876;SDS011;19226;51.600;8.034;2022-09-12T05:11:20;6.47;;;4.63;;
32876;SDS011;19226;51.600;8.034;2022-09-12T05:13:49;3.08;;;2.78;;
32876;SDS011;19226;51.600;8.034;2022-09-12T05:16:17;4.18;;;3.33;;
32876;SDS011;19226;51.600;8.034;2022-09-12T05:18:44;6.75;;;4.75;;
32876;SDS011;19226;51.600;8.034;2022-09-12T05:21:12;8.35;;;4.82;;
32876;SDS011;19226;51.600;8.034;2022-09-12T05:23:41;12.10;;;7.50;;
32876;SDS011;19226;51.600;8.034;2022-09-12T05:26:14;12.60;;;6.78;;
32876;SDS011;19226;51.600;8.034;2022-09-12T05:28:41;9.43;;;7.43;;
32876;SDS011;19226;51.600;8.034;2022-09-12T05:31:15;9.73;;;6.85;;
32876;SDS011;19226;51.600;8.034;2022-09-12T05:33:43;8.77;;;6.95;;
32876;SDS011;19226;51.600;8.034;2022-09-12T05:36:12;9.00;;;6.75;;
32876;SDS011;19226;51.600;8.034;2022-09-12T05:38:42;9.65;;;7.32;;
32876;SDS011;19226;51.600;8.034;2022-09-12T05:41:10;12.23;;;7.40;;
32876;SDS011;19226;51.600;8.034;2022-09-12T05:46:35;12.98;;;8.05;;
32876;SDS011;19226;51.600;8.034;2022-09-12T05:49:05;10.65;;;7.40;;
32876;SDS011;19226;51.600;8.034;2022-09-12T05:54:46;11.93;;;6.85;;
32876;SDS011;19226;51.600;8.034;2022-09-12T05:57:14;9.15;;;7.15;;
32876;SDS011;19226;51.600;8.034;2022-09-12T05:59:40;11.32;;;8.20;;
32876;SDS011;19226;51.600;8.034;2022-09-12T06:02:08;12.20;;;8.55;;
32876;SDS011;19226;51.600;8.034;2022-09-12T06:04:35;11.10;;;7.82;;
32876;SDS011;19226;51.600;8.034;2022-09-12T06:07:02;12.18;;;7.88;;
32876;SDS011;19226;51.600;8.034;2022-09-12T06:09:29;13.63;;;7.90;;
32876;SDS011;19226;51.600;8.034;2022-09-12T06:11:56;10.52;;;7.10;;
32876;SDS011;19226;51.600;8.034;2022-09-12T06:14:28;11.90;;;7.95;;
32876;SDS011;19226;51.600;8.034;2022-09-12T06:16:57;7.90;;;7.10;;
32876;SDS011;19226;51.600;8.034;2022-09-12T06:19:23;15.32;;;7.38;;
32876;SDS011;19226;51.600;8.034;2022-09-12T06:21:51;16.13;;;7.03;;
32876;SDS011;19226;51.600;8.034;2022-09-12T06:24:19;8.73;;;7.82;;
32876;SDS011;19226;51.600;8.034;2022-09-12T06:26:46;18.90;;;8.30;;
32876;SDS011;19226;51.600;8.034;2022-09-12T06:29:14;9.95;;;7.45;;
32876;SDS011;19226;51.600;8.034;2022-09-12T06:31:41;11.75;;;9.07;;
32876;SDS011;19226;51.600;8.034;2022-09-12T06:34:10;11.93;;;8.65;;
32876;SDS011;19226;51.600;8.034;2022-09-12T06:36:40;15.88;;;8.50;;
32876;SDS011;19226;51.600;8.034;2022-09-12T06:39:19;12.77;;;8.40;;
32876;SDS011;19226;51.600;8.034;2022-09-12T06:41:47;11.40;;;7.22;;
32876;SDS011;19226;51.600;8.034;2022-09-12T06:44:15;11.60;;;7.80;;
32876;SDS011;19226;51.600;8.034;2022-09-12T06:46:46;11.35;;;7.97;;
32876;SDS011;19226;51.600;8.034;2022-09-12T06:52:05;15.07;;;8.20;;
32876;SDS011;19226;51.600;8.034;2022-09-12T06:54:33;9.43;;;7.80;;
32876;SDS011;19226;51.600;8.034;2022-09-12T06:56:59;8.32;;;7.35;;
32876;SDS011;19226;51.600;8.034;2022-09-12T06:59:26;9.93;;;8.10;;
32876;SDS011;19226;51.600;8.034;2022-09-12T07:01:52;10.43;;;7.40;;
32876;SDS011;19226;51.600;8.034;2022-09-12T07:04:19;14.02;;;7.88;;
32876;SDS011;19226;51.600;8.034;2022-09-12T07:06:47;11.57;;;7.75;;
32876;SDS011;19226;51.600;8.034;2022-09-12T07:09:13;10.77;;;7.30;;
32876;SDS011;19226;51.600;8.034;2022-09-12T07:11:47;12.40;;;7.00;;
32876;SDS011;19226;51.600;8.034;2022-09-12T07:14:13;11.10;;;7.93;;
32876;SDS011;19226;51.600;8.034;2022-09-12T07:16:41;12.05;;;7.57;;
32876;SDS011;19226;51.600;8.034;2022-09-12T07:19:09;14.05;;;7.30;;
32876;SDS011;19226;51.600;8.034;2022-09-12T07:21:36;7.35;;;6.45;;
32876;SDS011;19226;51.600;8.034;2022-09-12T07:24:04;7.47;;;6.55;;
32876;SDS011;19226;51.600;8.034;2022-09-12T07:26:31;8.07;;;6.63;;
32876;SDS011;19226;51.600;8.034;2022-09-12T07:28:57;7.57;;;5.80;;
32876;SDS011;19226;51.600;8.034;2022-09-12T07:31:24;7.70;;;6.28;;
32876;SDS011;19226;51.600;8.034;2022-09-12T07:34:03;8.25;;;6.03;;
32876;SDS011;19226;51.600;8.034;2022-09-12T07:36:36;15.02;;;6.13;;
32876;SDS011;19226;51.600;8.034;2022-09-12T07:39:06;8.95;;;6.00;;
32876;SDS011;19226;51.600;8.034;2022-09-12T07:41:32;8.77;;;6.43;;
32876;SDS011;19226;51.600;8.034;2022-09-12T07:43:59;9.25;;;6.03;;
32876;SDS011;19226;51.600;8.034;2022-09-12T07:46:28;11.63;;;6.05;;
32876;SDS011;19226;51.600;8.034;2022-09-12T07:48:56;9.45;;;6.78;;
32876;SDS011;19226;51.600;8.034;2022-09-12T07:51:24;7.45;;;6.50;;
32876;SDS011;19226;51.600;8.034;2022-09-12T07:53:58;9.52;;;6.75;;
32876;SDS011;19226;51.600;8.034;2022-09-12T07:56:45;8.35;;;6.65;;
32876;SDS011;19226;51.600;8.034;2022-09-12T07:59:11;12.82;;;6.90;;
32876;SDS011;19226;51.600;8.034;2022-09-12T08:01:38;13.27;;;7.38;;
32876;SDS011;19226;51.600;8.034;2022-09-12T08:04:07;10.93;;;7.57;;
32876;SDS011;19226;51.600;8.034;2022-09-12T08:09:31;8.63;;;6.82;;
32876;SDS011;19226;51.600;8.034;2022-09-12T08:14:45;8.68;;;7.10;;
32876;SDS011;19226;51.600;8.034;2022-09-12T08:19:59;11.73;;;7.72;;
32876;SDS011;19226;51.600;8.034;2022-09-12T08:22:29;13.05;;;7.07;;
32876;SDS011;19226;51.600;8.034;2022-09-12T08:24:55;10.38;;;6.95;;
32876;SDS011;19226;51.600;8.034;2022-09-12T08:27:29;7.47;;;6.43;;
32876;SDS011;19226;51.600;8.034;2022-09-12T08:29:59;13.55;;;7.05;;
32876;SDS011;19226;51.600;8.034;2022-09-12T08:32:25;8.30;;;6.53;;
32876;SDS011;19226;51.600;8.034;2022-09-12T08:34:54;9.45;;;6.65;;
32876;SDS011;19226;51.600;8.034;2022-09-12T08:59:04;9.95;;;5.78;;
32876;SDS011;19226;51.600;8.034;2022-09-12T09:01:36;7.47;;;5.80;;
32876;SDS011;19226;51.600;8.034;2022-09-12T09:07:45;15.52;;;5.57;;
32876;SDS011;19226;51.600;8.034;2022-09-12T09:18:20;10.15;;;5.82;;
32876;SDS011;19226;51.600;8.034;2022-09-12T09:21:01;8.63;;;6.38;;
32876;SDS011;19226;51.600;8.034;2022-09-12T09:26:03;7.00;;;6.10;;
32876;SDS011;19226;51.600;8.034;2022-09-12T09:28:53;14.52;;;6.68;;
32876;SDS011;19226;51.600;8.034;2022-09-12T09:31:44;10.45;;;5.93;;
32876;SDS011;19226;51.600;8.034;2022-09-12T09:34:20;8.95;;;6.90;;
32876;SDS011;19226;51.600;8.034;2022-09-12T09:42:36;7.70;;;6.35;;
32876;SDS011;19226;51.600;8.034;2022-09-12T09:45:12;10.48;;;6.47;;
32876;SDS011;19226;51.600;8.034;2022-09-12T09:56:27;10.52;;;5.72;;
32876;SDS011;19226;51.600;8.034;2022-09-12T09:59:08;13.57;;;5.93;;
32876;SDS011;19226;51.600;8.034;2022-09-12T10:04:23;9.35;;;5.88;;
32876;SDS011;19226;51.600;8.034;2022-09-12T10:07:02;8.18;;;5.97;;
32876;SDS011;19226;51.600;8.034;2022-09-12T10:09:30;8.70;;;6.30;;
32876;SDS011;19226;51.600;8.034;2022-09-12T10:11:59;7.57;;;5.63;;
32876;SDS011;19226;51.600;8.034;2022-09-12T10:14:56;9.00;;;5.70;;
32876;SDS011;19226;51.600;8.034;2022-09-12T10:20:38;9.07;;;5.70;;
32876;SDS011;19226;51.600;8.034;2022-09-12T10:25:56;5.88;;;5.28;;
32876;SDS011;19226;51.600;8.034;2022-09-12T10:28:36;9.30;;;5.30;;
32876;SDS011;19226;51.600;8.034;2022-09-12T10:31:05;7.53;;;4.53;;
32876;SDS011;19226;51.600;8.034;2022-09-12T10:33:43;8.23;;;5.10;;
32876;SDS011;19226;51.600;8.034;2022-09-12T10:36:19;5.00;;;4.20;;
32876;SDS011;19226;51.600;8.034;2022-09-12T10:38:55;8.57;;;4.90;;
32876;SDS011;19226;51.600;8.034;2022-09-12T10:44:07;6.55;;;4.50;;
32876;SDS011;19226;51.600;8.034;2022-09-12T10:46:51;5.60;;;4.57;;
32876;SDS011;19226;51.600;8.034;2022-09-12T10:52:28;6.03;;;4.70;;
32876;SDS011;19226;51.600;8.034;2022-09-12T10:55:11;6.07;;;3.90;;
32876;SDS011;19226;51.600;8.034;2022-09-12T11:16:27;4.13;;;3.05;;
32876;SDS011;19226;51.600;8.034;2022-09-12T11:26:27;4.50;;;3.10;;
32876;SDS011;19226;51.600;8.034;2022-09-12T11:47:41;3.88;;;3.08;;
32876;SDS011;19226;51.600;8.034;2022-09-12T12:01:59;6.65;;;2.13;;
32876;SDS011;19226;51.600;8.034;2022-09-12T12:04:42;3.28;;;2.97;;
32876;SDS011;19226;51.600;8.034;2022-09-12T12:07:19;3.08;;;2.50;;
32876;SDS011;19226;51.600;8.034;2022-09-12T12:09:46;3.33;;;2.25;;
32876;SDS011;19226;51.600;8.034;2022-09-12T12:12:21;2.13;;;1.90;;
32876;SDS011;19226;51.600;8.034;2022-09-12T12:14:52;2.20;;;2.00;;
32876;SDS011;19226;51.600;8.034;2022-09-12T12:17:23;2.13;;;2.00;;
32876;SDS011;19226;51.600;8.034;2022-09-12T12:20:00;2.10;;;2.00;;
32876;SDS011;19226;51.600;8.034;2022-09-12T12:22:29;2.20;;;2.03;;
32876;SDS011;19226;51.600;8.034;2022-09-12T12:25:03;6.45;;;2.28;;
32876;SDS011;19226;51.600;8.034;2022-09-12T12:27:49;2.50;;;1.90;;
32876;SDS011;19226;51.600;8.034;2022-09-12T12:32:59;2.88;;;2.38;;
32876;SDS011;19226;51.600;8.034;2022-09-12T12:47:22;2.35;;;1.50;;
32876;SDS011;19226;51.600;8.034;2022-09-12T13:05:23;4.33;;;1.60;;
32876;SDS011;19226;51.600;8.034;2022-09-12T13:07:55;7.53;;;1.70;;
32876;SDS011;19226;51.600;8.034;2022-09-12T13:10:27;8.60;;;1.63;;
32876;SDS011;19226;51.600;8.034;2022-09-12T13:12:58;1.58;;;1.33;;
32876;SDS011;19226;51.600;8.034;2022-09-12T13:15:44;3.90;;;1.90;;
32876;SDS011;19226;51.600;8.034;2022-09-12T13:18:17;3.20;;;1.50;;
32876;SDS011;19226;51.600;8.034;2022-09-12T13:20:59;2.25;;;1.50;;
32876;SDS011;19226;51.600;8.034;2022-09-12T13:23:42;3.70;;;1.77;;
32876;SDS011;19226;51.600;8.034;2022-09-12T13:26:13;2.20;;;1.80;;
32876;SDS011;19226;51.600;8.034;2022-09-12T13:28:46;2.20;;;2.00;;
32876;SDS011;19226;51.600;8.034;2022-09-12T13:31:24;5.13;;;1.73;;
32876;SDS011;19226;51.600;8.034;2022-09-12T13:33:58;2.53;;;1.80;;
32876;SDS011;19226;51.600;8.034;2022-09-12T13:45:18;1.70;;;1.60;;
32876;SDS011;19226;51.600;8.034;2022-09-12T13:47:47;4.72;;;1.60;;
32876;SDS011;19226;51.600;8.034;2022-09-12T13:50:21;1.80;;;1.60;;
32876;SDS011;19226;51.600;8.034;2022-09-12T13:53:11;4.93;;;1.35;;
32876;SDS011;19226;51.600;8.034;2022-09-12T13:55:41;2.50;;;1.60;;
32876;SDS011;19226;51.600;8.034;2022-09-12T13:58:27;2.53;;;2.33;;
32876;SDS011;19226;51.600;8.034;2022-09-12T14:01:06;1.85;;;1.70;;
32876;SDS011;19226;51.600;8.034;2022-09-12T14:03:50;4.43;;;1.80;;
32876;SDS011;19226;51.600;8.034;2022-09-12T14:06:41;5.95;;;2.53;;
32876;SDS011;19226;51.600;8.034;2022-09-12T14:09:51;1.98;;;1.60;;
32876;SDS011;19226;51.600;8.034;2022-09-12T14:12:16;1.98;;;1.75;;
32876;SDS011;19226;51.600;8.034;2022-09-12T14:15:13;3.85;;;1.85;;
32876;SDS011;19226;51.600;8.034;2022-09-12T14:17:50;1.85;;;1.60;;
32876;SDS011;19226;51.600;8.034;2022-09-12T14:20:31;2.13;;;1.83;;
32876;SDS011;19226;51.600;8.034;2022-09-12T14:23:24;2.90;;;1.88;;
32876;SDS011;19226;51.600;8.034;2022-09-12T14:25:55;2.22;;;1.67;;
32876;SDS011;19226;51.600;8.034;2022-09-12T14:28:26;4.22;;;1.80;;
32876;SDS011;19226;51.600;8.034;2022-09-12T14:33:48;1.50;;;1.40;;
32876;SDS011;19226;51.600;8.034;2022-09-12T14:36:30;2.10;;;1.90;;
32876;SDS011;19226;51.600;8.034;2022-09-12T14:39:00;1.85;;;1.67;;
32876;SDS011;19226;51.600;8.034;2022-09-12T14:41:37;1.77;;;1.67;;
32876;SDS011;19226;51.600;8.034;2022-09-12T14:44:13;3.40;;;1.50;;
32876;SDS011;19226;51.600;8.034;2022-09-12T14:46:50;2.13;;;1.55;;
32876;SDS011;19226;51.600;8.034;2022-09-12T14:52:24;2.03;;;1.85;;
32876;SDS011;19226;51.600;8.034;2022-09-12T14:55:02;2.08;;;1.63;;
32876;SDS011;19226;51.600;8.034;2022-09-12T14:57:44;2.72;;;1.77;;
32876;SDS011;19226;51.600;8.034;2022-09-12T15:00:19;1.98;;;1.63;;
32876;SDS011;19226;51.600;8.034;2022-09-12T15:02:48;1.92;;;1.73;;
32876;SDS011;19226;51.600;8.034;2022-09-12T15:05:16;3.60;;;1.88;;
32876;SDS011;19226;51.600;8.034;2022-09-12T15:07:54;3.65;;;1.73;;
32876;SDS011;19226;51.600;8.034;2022-09-12T15:10:28;1.77;;;1.67;;
32876;SDS011;19226;51.600;8.034;2022-09-12T15:13:12;1.83;;;1.73;;
32876;SDS011;19226;51.600;8.034;2022-09-12T15:16:08;1.63;;;1.45;;
32876;SDS011;19226;51.600;8.034;2022-09-12T15:18:36;3.35;;;1.80;;
32876;SDS011;19226;51.600;8.034;2022-09-12T15:21:03;5.53;;;1.98;;
32876;SDS011;19226;51.600;8.034;2022-09-12T15:23:46;1.73;;;1.63;;
32876;SDS011;19226;51.600;8.034;2022-09-12T15:26:17;3.05;;;1.77;;
32876;SDS011;19226;51.600;8.034;2022-09-12T15:28:46;2.00;;;1.80;;
32876;SDS011;19226;51.600;8.034;2022-09-12T15:31:28;4.80;;;2.00;;
32876;SDS011;19226;51.600;8.034;2022-09-12T15:34:00;2.30;;;2.10;;
32876;SDS011;19226;51.600;8.034;2022-09-12T15:36:30;1.92;;;1.83;;
32876;SDS011;19226;51.600;8.034;2022-09-12T15:38:56;2.13;;;2.03;;
32876;SDS011;19226;51.600;8.034;2022-09-12T15:41:33;1.85;;;1.75;;
32876;SDS011;19226;51.600;8.034;2022-09-12T15:44:04;3.45;;;1.75;;
32876;SDS011;19226;51.600;8.034;2022-09-12T15:46:36;2.08;;;1.88;;
32876;SDS011;19226;51.600;8.034;2022-09-12T15:49:03;2.17;;;1.97;;
32876;SDS011;19226;51.600;8.034;2022-09-12T15:51:32;2.40;;;2.20;;
32876;SDS011;19226;51.600;8.034;2022-09-12T15:53:59;1.60;;;1.50;;
32876;SDS011;19226;51.600;8.034;2022-09-12T15:56:28;3.38;;;2.17;;
32876;SDS011;19226;51.600;8.034;2022-09-12T15:58:55;2.35;;;2.10;;
32876;SDS011;19226;51.600;8.034;2022-09-12T16:01:22;4.55;;;2.40;;
32876;SDS011;19226;51.600;8.034;2022-09-12T16:03:48;3.13;;;2.13;;
32876;SDS011;19226;51.600;8.034;2022-09-12T16:06:14;2.13;;;2.03;;
32876;SDS011;19226;51.600;8.034;2022-09-12T16:11:27;2.50;;;2.15;;
32876;SDS011;19226;51.600;8.034;2022-09-12T16:13:54;2.20;;;2.00;;
32876;SDS011;19226;51.600;8.034;2022-09-12T16:16:21;3.28;;;1.90;;
32876;SDS011;19226;51.600;8.034;2022-09-12T16:18:48;2.47;;;2.25;;
32876;SDS011;19226;51.600;8.034;2022-09-12T16:21:15;7.43;;;2.65;;
32876;SDS011;19226;51.600;8.034;2022-09-12T16:23:44;1.98;;;1.88;;
32876;SDS011;19226;51.600;8.034;2022-09-12T16:26:10;3.22;;;2.92;;
32876;SDS011;19226;51.600;8.034;2022-09-12T16:28:39;4.45;;;2.10;;
32876;SDS011;19226;51.600;8.034;2022-09-12T16:31:06;6.03;;;2.42;;
32876;SDS011;19226;51.600;8.034;2022-09-12T16:33:35;2.60;;;2.40;;
32876;SDS011;19226;51.600;8.034;2022-09-12T16:36:12;5.93;;;2.35;;
32876;SDS011;19226;51.600;8.034;2022-09-12T16:38:45;4.88;;;2.67;;
32876;SDS011;19226;51.600;8.034;2022-09-12T16:41:16;3.22;;;2.45;;
32876;SDS011;19226;51.600;8.034;2022-09-12T16:43:44;2.58;;;2.25;;
32876;SDS011;19226;51.600;8.034;2022-09-12T16:46:14;3.05;;;2.25;;
32876;SDS011;19226;51.600;8.034;2022-09-12T16:48:44;2.47;;;2.28;;
32876;SDS011;19226;51.600;8.034;2022-09-12T16:51:14;3.95;;;2.45;;
32876;SDS011;19226;51.600;8.034;2022-09-12T16:53:42;5.30;;;2.55;;
32876;SDS011;19226;51.600;8.034;2022-09-12T16:56:10;10.32;;;2.80;;
32876;SDS011;19226;51.600;8.034;2022-09-12T16:58:38;2.53;;;2.33;;
32876;SDS011;19226;51.600;8.034;2022-09-12T17:03:35;3.17;;;2.50;;
32876;SDS011;19226;51.600;8.034;2022-09-12T17:06:19;9.57;;;4.28;;
32876;SDS011;19226;51.600;8.034;2022-09-12T17:08:48;4.28;;;2.10;;
32876;SDS011;19226;51.600;8.034;2022-09-12T17:11:21;2.60;;;2.35;;
32876;SDS011;19226;51.600;8.034;2022-09-12T17:13:50;4.97;;;2.45;;
32876;SDS011;19226;51.600;8.034;2022-09-12T17:16:20;3.05;;;2.80;;
32876;SDS011;19226;51.600;8.034;2022-09-12T17:18:49;2.60;;;2.40;;
32876;SDS011;19226;51.600;8.034;2022-09-12T17:21:17;2.78;;;2.22;;
32876;SDS011;19226;51.600;8.034;2022-09-12T17:23:44;2.65;;;2.45;;
32876;SDS011;19226;51.600;8.034;2022-09-12T17:26:16;2.88;;;2.08;;
32876;SDS011;19226;51.600;8.034;2022-09-12T17:28:42;2.55;;;2.35;;
32876;SDS011;19226;51.600;8.034;2022-09-12T17:31:11;2.60;;;2.40;;
32876;SDS011;19226;51.600;8.034;2022-09-12T17:33:40;3.00;;;2.60;;
32876;SDS011;19226;51.600;8.034;2022-09-12T17:36:07;3.65;;;2.42;;
32876;SDS011;19226;51.600;8.034;2022-09-12T17:38:43;4.32;;;2.55;;
32876;SDS011;19226;51.600;8.034;2022-09-12T17:43:42;2.63;;;2.40;;
32876;SDS011;19226;51.600;8.034;2022-09-12T17:46:15;2.47;;;2.28;;
32876;SDS011;19226;51.600;8.034;2022-09-12T17:48:49;4.78;;;2.40;;
32876;SDS011;19226;51.600;8.034;2022-09-12T17:51:17;11.27;;;2.75;;
32876;SDS011;19226;51.600;8.034;2022-09-12T17:53:46;3.33;;;2.65;;
32876;SDS011;19226;51.600;8.034;2022-09-12T17:56:18;5.15;;;2.30;;
32876;SDS011;19226;51.600;8.034;2022-09-12T17:58:45;6.55;;;2.28;;
32876;SDS011;19226;51.600;8.034;2022-09-12T18:01:12;3.88;;;2.08;;
32876;SDS011;19226;51.600;8.034;2022-09-12T18:03:58;4.03;;;2.67;;
32876;SDS011;19226;51.600;8.034;2022-09-12T18:06:28;4.10;;;2.00;;
32876;SDS011;19226;51.600;8.034;2022-09-12T18:09:01;9.55;;;2.63;;
32876;SDS011;19226;51.600;8.034;2022-09-12T18:11:29;1.98;;;1.70;;
32876;SDS011;19226;51.600;8.034;2022-09-12T18:13:57;1.98;;;1.88;;
32876;SDS011;19226;51.600;8.034;2022-09-12T18:16:27;10.80;;;1.83;;
32876;SDS011;19226;51.600;8.034;2022-09-12T18:18:58;2.55;;;1.90;;
32876;SDS011;19226;51.600;8.034;2022-09-12T18:21:26;10.15;;;6.10;;
32876;SDS011;19226;51.600;8.034;2022-09-12T18:23:55;5.07;;;2.53;;
32876;SDS011;19226;51.600;8.034;2022-09-12T18:26:29;3.22;;;2.05;;
32876;SDS011;19226;51.600;8.034;2022-09-12T18:31:50;2.72;;;2.47;;
32876;SDS011;19226;51.600;8.034;2022-09-12T18:37:04;4.37;;;4.03;;
32876;SDS011;19226;51.600;8.034;2022-09-12T18:39:32;4.13;;;3.40;;
32876;SDS011;19226;51.600;8.034;2022-09-12T18:41:59;4.28;;;2.90;;
32876;SDS011;19226;51.600;8.034;2022-09-12T18:44:25;3.50;;;2.47;;
32876;SDS011;19226;51.600;8.034;2022-09-12T18:46:52;6.95;;;2.75;;
32876;SDS011;19226;51.600;8.034;2022-09-12T18:49:22;3.13;;;2.65;;
32876;SDS011;19226;51.600;8.034;2022-09-12T18:51:49;3.60;;;2.47;;
32876;SDS011;19226;51.600;8.034;2022-09-12T18:54:15;6.18;;;2.55;;
32876;SDS011;19226;51.600;8.034;2022-09-12T18:56:42;4.75;;;2.53;;
32876;SDS011;19226;51.600;8.034;2022-09-12T18:59:10;5.43;;;2.50;;
32876;SDS011;19226;51.600;8.034;2022-09-12T19:01:39;4.15;;;2.72;;
32876;SDS011;19226;51.600;8.034;2022-09-12T19:04:08;3.30;;;2.58;;
32876;SDS011;19226;51.600;8.034;2022-09-12T19:06:39;3.72;;;2.28;;
32876;SDS011;19226;51.600;8.034;2022-09-12T19:09:09;4.95;;;2.50;;
32876;SDS011;19226;51.600;8.034;2022-09-12T19:11:38;2.50;;;2.30;;
32876;SDS011;19226;51.600;8.034;2022-09-12T19:14:10;7.13;;;2.45;;
32876;SDS011;19226;51.600;8.034;2022-09-12T19:16:37;2.65;;;2.40;;